createdAt,value
2017-08-28T00:01:19.543Z,7.93
2017-08-28T00:03:46.184Z,9.20
2017-08-28T00:06:12.828Z,7.72
2017-08-28T00:08:39.607Z,8.50
2017-08-28T00:11:06.251Z,10.00
2017-08-28T00:13:32.977Z,8.20
2017-08-28T00:15:59.644Z,7.22
2017-08-28T00:18:26.366Z,8.73
2017-08-28T00:20:53.012Z,7.95
2017-08-28T00:23:19.695Z,10.63
2017-08-28T00:25:46.335Z,7.80
2017-08-28T00:28:13.034Z,8.00
2017-08-28T00:30:39.761Z,10.88
2017-08-28T00:33:06.423Z,11.50
2017-08-28T00:35:33.086Z,9.30
2017-08-28T00:37:59.767Z,9.32
2017-08-28T00:40:26.416Z,10.43
2017-08-28T00:42:53.157Z,9.90
2017-08-28T00:45:19.915Z,9.77
2017-08-28T00:47:46.654Z,10.93
2017-08-28T00:50:13.304Z,10.05
2017-08-28T00:52:40.020Z,11.45
2017-08-28T00:55:06.684Z,10.80
2017-08-28T00:57:33.344Z,9.45
2017-08-28T01:00:00.059Z,10.23
2017-08-28T01:02:26.718Z,10.30
2017-08-28T01:04:53.420Z,10.32
2017-08-28T01:07:20.165Z,10.93
2017-08-28T01:09:46.836Z,9.45
2017-08-28T01:12:13.494Z,9.35
2017-08-28T01:14:40.169Z,9.75
2017-08-28T01:17:06.828Z,8.98
2017-08-28T01:19:33.578Z,10.65
2017-08-28T01:22:00.245Z,11.75
2017-08-28T01:24:26.907Z,9.85
2017-08-28T01:26:53.564Z,11.05
2017-08-28T01:29:20.339Z,9.02
2017-08-28T01:31:47.002Z,9.30
2017-08-28T01:34:13.640Z,9.48
2017-08-28T01:36:40.312Z,11.80
2017-08-28T01:39:06.998Z,9.73
2017-08-28T01:41:33.738Z,9.27
2017-08-28T01:44:00.418Z,9.18
2017-08-28T01:46:27.064Z,9.23
2017-08-28T01:48:53.763Z,8.40
2017-08-28T01:51:20.462Z,9.00
2017-08-28T01:53:47.122Z,8.65
2017-08-28T01:56:13.770Z,9.30
2017-08-28T01:58:40.444Z,10.02
2017-08-28T02:01:07.144Z,9.65
2017-08-28T02:03:33.786Z,8.35
2017-08-28T02:06:00.524Z,7.78
2017-08-28T02:08:27.269Z,9.32
2017-08-28T02:10:53.909Z,8.82
2017-08-28T02:13:20.584Z,12.02
2017-08-28T02:15:47.284Z,11.05
2017-08-28T02:18:14.041Z,9.88
2017-08-28T02:20:40.768Z,9.35
2017-08-28T02:23:07.424Z,12.82
2017-08-28T02:25:34.149Z,9.07
2017-08-28T02:28:01.196Z,11.57
2017-08-28T02:30:27.963Z,8.82
2017-08-28T02:32:54.623Z,8.20
2017-08-28T02:35:21.326Z,12.05
2017-08-28T02:37:47.983Z,8.82
2017-08-28T02:40:14.632Z,8.13
2017-08-28T02:42:41.363Z,8.45
2017-08-28T02:45:08.014Z,9.52
2017-08-28T02:47:34.946Z,9.00
2017-08-28T02:50:01.644Z,9.63
2017-08-28T02:52:28.304Z,9.32
2017-08-28T02:54:54.945Z,9.23
2017-08-28T02:57:21.703Z,11.60
2017-08-28T02:59:48.430Z,11.68
2017-08-28T03:02:15.077Z,10.05
2017-08-28T03:04:41.753Z,8.90
2017-08-28T03:07:08.450Z,8.75
2017-08-28T03:09:35.092Z,10.70
2017-08-28T03:12:01.768Z,9.35
2017-08-28T03:14:28.408Z,9.65
2017-08-28T03:16:55.109Z,8.70
2017-08-28T03:19:21.850Z,10.02
2017-08-28T03:21:48.508Z,9.90
2017-08-28T03:24:15.247Z,9.60
2017-08-28T03:26:41.935Z,9.38
2017-08-28T03:29:08.609Z,12.20
2017-08-28T03:31:35.267Z,11.27
2017-08-28T03:34:01.997Z,9.07
2017-08-28T03:36:28.636Z,8.60
2017-08-28T03:38:55.280Z,8.57
2017-08-28T03:41:21.947Z,11.15
2017-08-28T03:43:48.588Z,9.95
2017-08-28T03:46:15.236Z,10.05
2017-08-28T03:48:41.904Z,12.88
2017-08-28T03:51:08.563Z,10.00
2017-08-28T03:53:35.226Z,10.10
2017-08-28T03:56:01.901Z,10.88
2017-08-28T03:58:28.545Z,8.30
2017-08-28T04:00:55.188Z,8.45
2017-08-28T04:03:21.870Z,9.35
2017-08-28T04:05:48.539Z,11.55
2017-08-28T04:08:15.184Z,8.45
2017-08-28T04:10:41.884Z,10.38
2017-08-28T04:13:08.555Z,11.70
2017-08-28T04:15:35.205Z,10.25
2017-08-28T04:18:01.891Z,11.68
2017-08-28T04:20:28.540Z,7.95
2017-08-28T04:22:55.605Z,10.23
2017-08-28T04:25:22.281Z,9.55
2017-08-28T04:27:48.939Z,11.77
2017-08-28T04:30:15.592Z,8.40
2017-08-28T04:32:42.368Z,9.13
2017-08-28T04:35:09.038Z,12.30
2017-08-28T04:37:35.688Z,14.25
2017-08-28T04:40:02.351Z,10.10
2017-08-28T04:42:28.993Z,8.55
2017-08-28T04:44:55.661Z,11.93
2017-08-28T04:47:22.393Z,8.82
2017-08-28T04:49:49.147Z,11.95
2017-08-28T04:52:15.807Z,8.82
2017-08-28T04:54:42.622Z,8.27
2017-08-28T04:57:09.264Z,9.82
2017-08-28T04:59:36.007Z,10.00
2017-08-28T05:02:02.751Z,7.75
2017-08-28T05:04:29.486Z,7.80
2017-08-28T05:06:56.216Z,8.40
2017-08-28T05:09:22.884Z,8.05
2017-08-28T05:11:49.538Z,9.90
2017-08-28T05:14:16.258Z,13.25
2017-08-28T05:16:42.982Z,8.25
2017-08-28T05:19:09.720Z,8.35
2017-08-28T05:21:36.368Z,10.43
2017-08-28T05:24:03.029Z,8.77
2017-08-28T05:26:29.760Z,10.38
2017-08-28T05:28:56.414Z,8.10
2017-08-28T05:31:23.121Z,7.85
2017-08-28T05:33:49.882Z,9.18
2017-08-28T05:36:16.604Z,10.82
2017-08-28T05:38:43.287Z,8.90
2017-08-28T05:41:09.932Z,8.07
2017-08-28T05:43:36.571Z,7.40
2017-08-28T05:46:03.239Z,8.57
2017-08-28T05:48:29.920Z,8.30
2017-08-28T05:50:56.646Z,8.30
2017-08-28T05:53:23.313Z,9.52
2017-08-28T05:55:49.970Z,7.30
2017-08-28T05:58:16.660Z,15.13
2017-08-28T06:00:43.413Z,6.80
2017-08-28T06:03:10.071Z,8.10
2017-08-28T06:05:36.751Z,8.15
2017-08-28T06:08:03.543Z,9.27
2017-08-28T06:10:30.287Z,10.85
2017-08-28T06:12:56.936Z,8.63
2017-08-28T06:15:23.610Z,8.77
2017-08-28T06:17:50.248Z,9.07
2017-08-28T06:20:16.914Z,10.98
2017-08-28T06:22:43.583Z,7.82
2017-08-28T06:25:10.305Z,8.20
2017-08-28T06:27:36.949Z,6.22
2017-08-28T06:30:03.711Z,7.28
2017-08-28T06:32:30.429Z,7.15
2017-08-28T06:34:57.188Z,7.12
2017-08-28T06:37:23.871Z,9.00
2017-08-28T06:39:50.559Z,9.13
2017-08-28T06:42:17.287Z,8.07
2017-08-28T06:44:44.058Z,7.72
2017-08-28T06:47:10.768Z,6.97
2017-08-28T06:49:37.538Z,6.80
2017-08-28T06:52:04.275Z,7.25
2017-08-28T06:54:30.999Z,6.78
2017-08-28T06:56:57.759Z,9.05
2017-08-28T06:59:24.443Z,8.20
2017-08-28T07:01:51.106Z,10.38
2017-08-28T07:04:17.759Z,6.82
2017-08-28T07:06:44.616Z,12.57
2017-08-28T07:09:11.264Z,8.30
2017-08-28T07:11:37.994Z,6.87
2017-08-28T07:14:04.686Z,6.25
2017-08-28T07:16:31.971Z,5.55
2017-08-28T07:18:58.637Z,6.25
2017-08-28T07:21:25.332Z,8.05
2017-08-28T07:23:51.994Z,8.93
2017-08-28T07:26:18.644Z,7.82
2017-08-28T07:28:45.313Z,6.45
2017-08-28T07:31:11.975Z,6.90
2017-08-28T07:33:38.671Z,7.90
2017-08-28T07:36:05.349Z,5.65
2017-08-28T07:38:31.997Z,6.55
2017-08-28T07:40:58.695Z,6.37
2017-08-28T07:43:25.377Z,7.60
2017-08-28T07:45:52.033Z,7.65
2017-08-28T07:48:18.816Z,6.10
2017-08-28T07:50:45.559Z,6.68
2017-08-28T07:53:12.305Z,8.15
2017-08-28T07:55:38.967Z,6.78
2017-08-28T07:58:05.679Z,6.70
2017-08-28T08:00:32.324Z,7.12
2017-08-28T08:02:59.045Z,7.57
2017-08-28T08:05:25.784Z,6.55
2017-08-28T08:07:52.447Z,7.10
2017-08-28T08:10:19.183Z,8.35
2017-08-28T08:12:45.871Z,7.00
2017-08-28T08:15:12.511Z,9.80
2017-08-28T08:17:39.156Z,8.00
2017-08-28T08:20:05.830Z,6.50
2017-08-28T08:22:32.570Z,5.95
2017-08-28T08:24:59.317Z,7.20
2017-08-28T08:27:26.053Z,6.18
2017-08-28T08:29:52.695Z,6.12
2017-08-28T08:32:19.429Z,7.30
2017-08-28T08:34:46.103Z,6.50
2017-08-28T08:37:12.750Z,7.95
2017-08-28T08:39:39.452Z,7.07
2017-08-28T08:42:06.128Z,6.25
2017-08-28T08:44:32.792Z,6.35
2017-08-28T08:46:59.468Z,6.62
2017-08-28T08:49:26.239Z,8.60
2017-08-28T08:51:52.964Z,9.43
2017-08-28T08:54:19.612Z,6.28
2017-08-28T08:56:46.284Z,5.87
2017-08-28T08:59:12.971Z,6.22
2017-08-28T09:01:39.740Z,5.78
2017-08-28T09:04:06.427Z,7.82
2017-08-28T09:06:33.097Z,6.10
2017-08-28T09:08:59.837Z,10.43
2017-08-28T09:11:26.518Z,7.53
2017-08-28T09:13:53.235Z,7.47
2017-08-28T09:16:19.894Z,6.28
2017-08-28T09:18:46.599Z,11.40
2017-08-28T09:21:13.359Z,8.48
2017-08-28T09:23:40.094Z,5.60
2017-08-28T09:26:06.852Z,7.60
2017-08-28T09:28:33.503Z,12.30
2017-08-28T09:31:00.212Z,6.53
2017-08-28T09:33:26.954Z,7.43
2017-08-28T09:35:53.677Z,6.65
2017-08-28T09:38:20.338Z,6.37
2017-08-28T09:40:47.071Z,6.28
2017-08-28T09:43:13.717Z,13.80
2017-08-28T09:45:40.351Z,6.78
2017-08-28T09:48:07.012Z,6.62
2017-08-28T09:50:33.675Z,10.65
2017-08-28T09:53:00.317Z,7.90
2017-08-28T09:55:26.994Z,7.68
2017-08-28T09:57:53.636Z,7.90
2017-08-28T10:00:20.294Z,9.63
2017-08-28T10:02:46.964Z,8.40
2017-08-28T10:05:13.663Z,8.90
2017-08-28T10:07:40.304Z,8.07
2017-08-28T10:10:06.972Z,8.77
2017-08-28T10:12:33.624Z,9.63
2017-08-28T10:15:00.326Z,9.05
2017-08-28T10:17:26.992Z,7.45
2017-08-28T10:19:53.631Z,8.15
2017-08-28T10:22:20.287Z,8.77
2017-08-28T10:24:47.092Z,7.47
2017-08-28T10:27:13.327Z,8.07
2017-08-28T10:29:39.987Z,8.02
2017-08-28T10:32:06.656Z,7.03
2017-08-28T10:34:33.315Z,9.98
2017-08-28T10:36:59.956Z,7.47
2017-08-28T10:39:26.726Z,8.90
2017-08-28T10:41:53.368Z,7.75
2017-08-28T10:44:20.027Z,8.05
2017-08-28T10:46:46.715Z,7.25
2017-08-28T10:49:13.375Z,8.95
2017-08-28T10:51:40.027Z,7.45
2017-08-28T10:54:06.767Z,7.82
2017-08-28T10:56:33.488Z,6.28
2017-08-28T10:59:00.228Z,7.65
2017-08-28T11:01:26.892Z,6.47
2017-08-28T11:03:53.549Z,9.35
2017-08-28T11:06:20.368Z,9.55
2017-08-28T11:08:47.052Z,7.60
2017-08-28T11:11:13.695Z,7.40
2017-08-28T11:13:40.345Z,8.10
2017-08-28T11:16:07.022Z,8.63
2017-08-28T11:18:33.666Z,9.52
2017-08-28T11:21:00.308Z,8.52
2017-08-28T11:23:27.019Z,7.37
2017-08-28T11:25:53.683Z,10.73
2017-08-28T11:28:20.409Z,7.78
2017-08-28T11:30:47.160Z,9.98
2017-08-28T11:33:13.891Z,7.47
2017-08-28T11:35:40.652Z,8.65
2017-08-28T11:38:07.338Z,8.52
2017-08-28T11:40:34.012Z,7.43
2017-08-28T11:43:00.672Z,10.52
2017-08-28T11:45:27.344Z,7.05
2017-08-28T11:47:54.002Z,7.97
2017-08-28T11:50:20.690Z,6.70
2017-08-28T11:52:47.418Z,6.57
2017-08-28T11:55:14.060Z,7.00
2017-08-28T11:57:40.719Z,6.95
2017-08-28T12:00:07.388Z,7.62
2017-08-28T12:02:34.082Z,7.40
2017-08-28T12:05:00.818Z,6.25
2017-08-28T12:07:27.505Z,6.75
2017-08-28T12:09:54.200Z,6.87
2017-08-28T12:12:20.956Z,6.50
2017-08-28T12:14:47.628Z,6.50
2017-08-28T12:17:14.263Z,9.50
2017-08-28T12:19:40.920Z,6.87
2017-08-28T12:22:07.592Z,6.07
2017-08-28T12:24:34.246Z,5.73
2017-08-28T12:27:00.990Z,7.47
2017-08-28T12:29:27.663Z,5.83
2017-08-28T12:31:54.320Z,5.60
2017-08-28T12:34:20.998Z,5.47
2017-08-28T12:36:47.672Z,6.23
2017-08-28T12:39:14.378Z,5.17
2017-08-28T12:41:41.022Z,4.60
2017-08-28T12:44:07.768Z,5.23
2017-08-28T12:46:34.497Z,6.93
2017-08-28T12:49:01.209Z,5.00
2017-08-28T12:51:27.879Z,5.00
2017-08-28T12:53:54.636Z,5.50
2017-08-28T12:56:21.289Z,5.00
2017-08-28T12:58:47.999Z,5.97
2017-08-28T13:01:14.656Z,4.97
2017-08-28T13:03:41.395Z,6.90
2017-08-28T13:06:08.121Z,4.53
2017-08-28T13:08:34.870Z,3.70
2017-08-28T13:11:01.623Z,5.03
2017-08-28T13:13:28.302Z,3.60
2017-08-28T13:15:54.998Z,4.23
2017-08-28T13:18:21.747Z,11.00
2017-08-28T13:20:48.417Z,4.93
2017-08-28T13:23:15.061Z,4.30
2017-08-28T13:25:41.719Z,8.17
2017-08-28T13:28:08.814Z,3.33
2017-08-28T13:30:35.479Z,3.30
2017-08-28T13:33:02.134Z,4.03
2017-08-28T13:35:28.823Z,4.30
2017-08-28T13:37:55.640Z,4.27
2017-08-28T13:40:22.302Z,6.77
2017-08-28T13:42:49.060Z,3.53
2017-08-28T13:45:15.764Z,5.33
2017-08-28T13:47:42.418Z,8.53
2017-08-28T13:50:11.004Z,3.57
2017-08-28T13:52:37.763Z,4.80
2017-08-28T13:55:04.500Z,7.93
2017-08-28T13:57:31.233Z,3.00
2017-08-28T13:59:57.890Z,3.43
2017-08-28T14:02:24.624Z,4.30
2017-08-28T14:04:51.368Z,3.20
2017-08-28T14:07:18.022Z,2.70
2017-08-28T14:09:44.664Z,2.67
2017-08-28T14:12:11.368Z,4.17
2017-08-28T14:14:38.127Z,2.63
2017-08-28T14:17:04.799Z,2.70
2017-08-28T14:19:31.489Z,3.10
2017-08-28T14:21:58.150Z,3.33
2017-08-28T14:24:24.810Z,5.00
2017-08-28T14:26:51.527Z,5.17
2017-08-28T14:29:18.168Z,8.17
2017-08-28T14:31:44.808Z,3.13
2017-08-28T14:34:11.547Z,3.67
2017-08-28T14:36:38.276Z,2.40
2017-08-28T14:39:04.934Z,4.13
2017-08-28T14:41:31.600Z,2.43
2017-08-28T14:43:58.291Z,2.63
2017-08-28T14:46:24.940Z,2.50
2017-08-28T14:48:51.600Z,3.50
2017-08-28T14:51:18.243Z,3.30
2017-08-28T14:53:44.884Z,1.97
2017-08-28T14:56:11.575Z,4.10
2017-08-28T14:58:38.343Z,2.60
2017-08-28T15:01:05.079Z,3.53
2017-08-28T15:03:31.749Z,2.90
2017-08-28T15:05:58.452Z,2.40
2017-08-28T15:08:25.114Z,2.60
2017-08-28T15:10:51.799Z,2.57
2017-08-28T15:13:18.485Z,5.20
2017-08-28T15:15:45.127Z,5.43
2017-08-28T15:18:11.796Z,4.33
2017-08-28T15:20:38.490Z,4.83
2017-08-28T15:23:05.243Z,3.73
2017-08-28T15:25:31.978Z,2.77
2017-08-28T15:27:58.643Z,2.27
2017-08-28T15:30:25.317Z,3.70
2017-08-28T15:32:51.993Z,2.60
2017-08-28T15:35:18.653Z,3.50
2017-08-28T15:37:45.319Z,3.37
2017-08-28T15:40:12.033Z,1.97
2017-08-28T15:42:38.685Z,3.80
2017-08-28T15:45:05.328Z,2.80
2017-08-28T15:47:32.008Z,3.10
2017-08-28T15:49:58.786Z,2.73
2017-08-28T15:52:25.512Z,5.90
2017-08-28T15:54:52.178Z,2.47
2017-08-28T15:57:18.887Z,2.37
2017-08-28T15:59:45.654Z,2.33
2017-08-28T16:02:12.324Z,2.90
2017-08-28T16:04:38.983Z,2.40
2017-08-28T16:07:05.631Z,2.30
2017-08-28T16:09:32.311Z,2.10
2017-08-28T16:11:59.051Z,3.13
2017-08-28T16:14:25.711Z,2.97
2017-08-28T16:16:52.412Z,2.87
2017-08-28T16:19:19.120Z,3.57
2017-08-28T16:21:45.790Z,2.67
2017-08-28T16:24:12.466Z,3.93
2017-08-28T16:26:39.118Z,2.80
2017-08-28T16:29:05.786Z,5.70
2017-08-28T16:31:32.452Z,2.77
2017-08-28T16:33:59.111Z,5.23
2017-08-28T16:36:25.868Z,3.67
2017-08-28T16:38:52.591Z,7.90
2017-08-28T16:41:19.246Z,5.90
2017-08-28T16:43:45.902Z,5.73
2017-08-28T16:46:12.603Z,3.53
2017-08-28T16:48:39.243Z,5.00
2017-08-28T16:51:05.987Z,5.03
2017-08-28T16:53:32.722Z,6.47
2017-08-28T16:55:59.375Z,13.03
2017-08-28T16:58:26.031Z,4.57
2017-08-28T17:00:52.742Z,6.03
2017-08-28T17:03:20.276Z,4.70
2017-08-28T17:05:47.902Z,8.33
2017-08-28T17:08:15.724Z,6.95
2017-08-28T17:10:43.133Z,35.83
2017-08-28T17:13:09.929Z,21.80
2017-08-28T17:15:36.600Z,5.95
2017-08-28T17:18:03.304Z,12.23
2017-08-28T17:20:29.951Z,7.40
2017-08-28T17:22:56.662Z,13.75
2017-08-28T17:25:23.326Z,4.43
2017-08-28T17:27:50.072Z,10.77
2017-08-28T17:30:16.765Z,4.30
2017-08-28T17:32:43.443Z,5.10
2017-08-28T17:35:10.111Z,4.82
2017-08-28T17:37:36.823Z,5.95
2017-08-28T17:40:03.569Z,4.30
2017-08-28T17:42:30.307Z,4.05
2017-08-28T17:44:56.996Z,4.10
2017-08-28T17:47:23.706Z,5.68
2017-08-28T17:49:50.433Z,10.70
2017-08-28T17:52:17.190Z,3.90
2017-08-28T17:54:43.851Z,5.97
2017-08-28T17:57:10.500Z,11.20
2017-08-28T17:59:37.171Z,5.40
2017-08-28T18:02:03.830Z,4.78
2017-08-28T18:04:30.490Z,5.10
2017-08-28T18:06:57.212Z,5.10
2017-08-28T18:09:23.876Z,4.62
2017-08-28T18:11:50.524Z,4.00
2017-08-28T18:14:17.192Z,5.47
2017-08-28T18:16:43.873Z,5.03
2017-08-28T18:19:10.825Z,5.28
2017-08-28T18:21:37.772Z,4.95
2017-08-28T18:24:04.832Z,5.60
2017-08-28T18:26:32.294Z,6.37
2017-08-28T18:28:59.336Z,7.18
2017-08-28T18:31:26.385Z,4.75
2017-08-28T18:33:53.527Z,5.82
2017-08-28T18:36:20.587Z,4.85
2017-08-28T18:38:47.635Z,3.75
2017-08-28T18:41:14.776Z,3.20
2017-08-28T18:43:41.927Z,5.22
2017-08-28T18:46:08.990Z,8.13
2017-08-28T18:48:36.047Z,5.00
2017-08-28T18:51:03.174Z,3.37
2017-08-28T18:53:30.236Z,4.15
2017-08-28T18:55:57.280Z,4.85
2017-08-28T18:58:24.336Z,4.35
2017-08-28T19:00:51.394Z,3.92
2017-08-28T19:03:18.431Z,4.55
2017-08-28T19:05:45.597Z,4.55
2017-08-28T19:08:12.731Z,4.03
2017-08-28T19:10:39.781Z,5.12
2017-08-28T19:13:06.841Z,3.72
2017-08-28T19:15:33.885Z,3.35
2017-08-28T19:18:01.016Z,5.00
2017-08-28T19:20:28.168Z,4.40
2017-08-28T19:22:55.222Z,5.47
2017-08-28T19:25:22.274Z,4.62
2017-08-28T19:27:49.324Z,5.32
2017-08-28T19:30:16.365Z,5.10
2017-08-28T19:32:43.431Z,7.20
2017-08-28T19:35:14.064Z,10.23
2017-08-28T19:37:41.110Z,4.43
2017-08-28T19:40:08.243Z,5.75
2017-08-28T19:42:35.312Z,5.32
2017-08-28T19:45:02.443Z,9.65
2017-08-28T19:47:29.220Z,5.43
2017-08-28T19:49:55.925Z,6.82
2017-08-28T19:52:22.659Z,7.50
2017-08-28T19:54:50.173Z,5.10
2017-08-28T19:57:16.877Z,5.35
2017-08-28T19:59:43.619Z,4.18
2017-08-28T20:02:10.279Z,3.75
2017-08-28T20:04:36.969Z,4.57
2017-08-28T20:07:03.739Z,6.55
2017-08-28T20:09:30.477Z,4.87
2017-08-28T20:11:57.136Z,4.62
2017-08-28T20:14:23.955Z,4.00
2017-08-28T20:16:50.607Z,6.45
2017-08-28T20:19:17.277Z,4.57
2017-08-28T20:21:43.959Z,4.95
2017-08-28T20:24:10.711Z,6.35
2017-08-28T20:26:37.377Z,4.30
2017-08-28T20:29:04.089Z,12.52
2017-08-28T20:31:30.745Z,5.00
2017-08-28T20:33:57.433Z,4.80
2017-08-28T20:36:24.110Z,5.93
2017-08-28T20:38:50.766Z,6.25
2017-08-28T20:41:17.441Z,5.20
2017-08-28T20:43:44.080Z,5.05
2017-08-28T20:46:10.735Z,5.35
2017-08-28T20:48:37.509Z,5.97
2017-08-28T20:51:04.167Z,6.12
2017-08-28T20:53:30.830Z,5.57
2017-08-28T20:55:57.526Z,5.07
2017-08-28T20:58:24.186Z,5.75
2017-08-28T21:00:50.908Z,4.85
2017-08-28T21:03:17.667Z,6.07
2017-08-28T21:05:44.326Z,6.85
2017-08-28T21:08:10.993Z,7.82
2017-08-28T21:10:37.680Z,9.10
2017-08-28T21:13:04.347Z,10.75
2017-08-28T21:15:30.992Z,9.10
2017-08-28T21:17:57.699Z,11.48
2017-08-28T21:20:24.359Z,11.82
2017-08-28T21:22:51.009Z,10.90
2017-08-28T21:25:17.699Z,9.32
2017-08-28T21:27:44.371Z,9.38
2017-08-28T21:30:11.016Z,8.82
2017-08-28T21:32:37.703Z,16.45
2017-08-28T21:35:04.348Z,11.30
2017-08-28T21:37:31.108Z,11.10
2017-08-28T21:39:57.776Z,10.43
2017-08-28T21:42:24.489Z,10.00
2017-08-28T21:44:51.244Z,12.80
2017-08-28T21:47:17.920Z,14.23
2017-08-28T21:49:44.630Z,16.12
2017-08-28T21:52:11.295Z,18.45
2017-08-28T21:54:37.984Z,13.52
2017-08-28T21:57:04.643Z,11.15
2017-08-28T21:59:31.392Z,11.70
2017-08-28T22:01:58.096Z,9.60
2017-08-28T22:04:24.740Z,6.30
2017-08-28T22:06:51.377Z,8.88
2017-08-28T22:09:18.131Z,8.48
2017-08-28T22:11:44.790Z,11.60
2017-08-28T22:14:11.523Z,6.50
2017-08-28T22:16:38.188Z,7.35
2017-08-28T22:19:04.898Z,7.93
2017-08-28T22:21:31.557Z,6.90
2017-08-28T22:23:58.247Z,6.87
2017-08-28T22:26:24.911Z,7.28
2017-08-28T22:28:51.566Z,8.37
2017-08-28T22:31:18.244Z,5.55
2017-08-28T22:33:44.902Z,8.15
2017-08-28T22:36:11.573Z,6.18
2017-08-28T22:38:38.331Z,12.82
2017-08-28T22:41:04.986Z,6.57
2017-08-28T22:43:31.624Z,5.80
2017-08-28T22:45:58.299Z,11.20
2017-08-28T22:48:24.976Z,8.57
2017-08-28T22:50:51.735Z,6.00
2017-08-28T22:53:18.467Z,6.57
2017-08-28T22:55:45.207Z,7.50
2017-08-28T22:58:11.871Z,10.60
2017-08-28T23:00:38.576Z,11.40
2017-08-28T23:03:05.335Z,7.75
2017-08-28T23:05:32.062Z,7.70
2017-08-28T23:07:58.743Z,8.23
2017-08-28T23:10:25.440Z,9.38
2017-08-28T23:12:52.104Z,10.57
2017-08-28T23:15:18.772Z,9.85
2017-08-28T23:17:45.460Z,7.53
2017-08-28T23:20:12.102Z,8.77
2017-08-28T23:22:38.850Z,10.52
2017-08-28T23:25:05.488Z,8.32
2017-08-28T23:27:32.155Z,9.77
2017-08-28T23:29:58.861Z,7.40
2017-08-28T23:32:25.618Z,9.23
2017-08-28T23:34:52.346Z,7.90
2017-08-28T23:37:19.013Z,7.22
2017-08-28T23:39:45.725Z,7.82
2017-08-28T23:42:12.474Z,7.47
2017-08-28T23:44:39.155Z,8.10
2017-08-28T23:47:05.815Z,7.22
2017-08-28T23:49:32.470Z,7.07
2017-08-28T23:51:59.158Z,7.43
2017-08-28T23:54:25.805Z,8.18
2017-08-28T23:56:52.505Z,7.72
2017-08-28T23:59:19.258Z,8.80
